Terminal Aerodrome Forecast
Issued by NWS

Home | Current Version | Previous Version | Graphics & Text | Print | Product List | Glossary On
Versions: 1 2 3 4 5 6 7 8 9 10 11 12 13 14 15 16 17 18 19 20 21 22 23
656
FTUS42 KMHX 171739
TAFOAJ
TAF
KOAJ 171739Z 1718/1818 16006KT P6SM VCTS SCT045CB
     FM180000 VRB04KT P6SM BKN110
     FM181400 VRB04KT P6SM VCTS BKN050CB
      AMD LTD TO CLD VIS AND WIND=

USA.gov is the U.S. government's official web portal to all federal, state and local government web resources and services.